createdAt,value
2023-04-27T00:08:04.225Z,1.10
2023-04-27T00:18:09.118Z,1.10
2023-04-27T00:28:12.498Z,1.20
2023-04-27T00:38:17.407Z,1.10
2023-04-27T00:48:20.839Z,1.10
2023-04-27T00:58:26.023Z,1.10
2023-04-27T01:08:29.796Z,1.00
2023-04-27T01:18:35.139Z,1.00
2023-04-27T01:28:39.852Z,1.10
2023-04-27T01:38:43.586Z,1.40
2023-04-27T01:48:50.988Z,1.30
2023-04-27T01:58:54.739Z,1.40
2023-04-27T02:09:00.138Z,1.20
2023-04-27T02:19:04.383Z,0.60
2023-04-27T02:29:09.191Z,0.00
2023-04-27T02:39:13.437Z,-0.30
2023-04-27T02:49:18.989Z,-0.60
2023-04-27T02:59:23.461Z,-0.90
2023-04-27T03:09:28.291Z,-1.00
2023-04-27T03:19:34.142Z,-1.10
2023-04-27T03:29:38.921Z,-1.20
2023-04-27T03:39:42.434Z,-1.30
2023-04-27T03:49:47.886Z,-1.30
2023-04-27T03:59:51.976Z,-1.20
2023-04-27T04:09:56.846Z,-0.90
2023-04-27T04:20:00.784Z,-0.70
2023-04-27T04:30:07.545Z,-0.50
2023-04-27T04:40:14.291Z,-0.20
2023-04-27T04:50:19.351Z,0.50
2023-04-27T05:00:23.427Z,1.40
2023-04-27T05:10:28.206Z,2.20
2023-04-27T05:20:31.555Z,2.90
2023-04-27T05:30:36.332Z,2.90
2023-04-27T05:40:39.829Z,3.00
2023-04-27T05:50:44.557Z,3.30
2023-04-27T06:00:47.967Z,4.60
2023-04-27T06:10:53.250Z,6.00
2023-04-27T06:21:01.794Z,7.20
2023-04-27T06:31:07.367Z,7.60
2023-04-27T06:41:11.003Z,9.70
2023-04-27T06:51:16.136Z,11.20
2023-04-27T07:01:19.603Z,12.40
2023-04-27T07:11:24.692Z,14.30
2023-04-27T07:21:28.659Z,16.90
2023-04-27T07:31:33.935Z,17.60
2023-04-27T07:41:37.308Z,15.60
2023-04-27T07:51:43.073Z,18.30
2023-04-27T08:01:46.608Z,19.10
2023-04-27T08:11:51.501Z,13.80
2023-04-27T08:21:54.831Z,11.90
2023-04-27T08:32:02.577Z,11.50
2023-04-27T08:42:12.795Z,12.70
2023-04-27T08:52:18.467Z,14.80
2023-04-27T09:02:22.594Z,15.90
2023-04-27T09:12:27.313Z,23.70
2023-04-27T09:22:31.503Z,26.50
2023-04-27T09:32:36.223Z,27.50
2023-04-27T09:42:40.159Z,22.50
2023-04-27T09:52:47.808Z,16.10
2023-04-27T10:03:07.588Z,12.30
2023-04-27T10:13:23.949Z,11.30
2023-04-27T10:23:28.982Z,11.00
2023-04-27T10:33:44.063Z,11.90
2023-04-27T10:43:47.476Z,20.80
2023-04-27T10:53:55.567Z,33.30
2023-04-27T11:03:59.941Z,27.50
2023-04-27T11:14:04.741Z,19.20
2023-04-27T11:24:10.111Z,14.80
2023-04-27T11:34:19.685Z,12.00
2023-04-27T11:44:28.382Z,11.10
2023-04-27T11:54:33.127Z,12.10
2023-04-27T12:04:36.719Z,14.60
2023-04-27T12:14:42.085Z,15.00
2023-04-27T12:24:45.570Z,14.00
2023-04-27T12:34:50.273Z,12.60
2023-04-27T12:44:54.849Z,12.50
2023-04-27T12:54:59.692Z,18.20
2023-04-27T13:05:04.133Z,18.90
2023-04-27T13:15:10.884Z,17.80
2023-04-27T13:25:14.257Z,17.70
2023-04-27T13:35:19.244Z,17.80
2023-04-27T13:45:22.890Z,16.40
2023-04-27T13:55:27.710Z,15.30
2023-04-27T14:05:31.917Z,15.20
2023-04-27T14:15:37.588Z,15.10
2023-04-27T14:25:41.463Z,14.70
2023-04-27T14:35:46.202Z,15.50
2023-04-27T14:45:52.608Z,14.90
2023-04-27T14:56:00.424Z,13.70
2023-04-27T15:06:05.502Z,13.30
2023-04-27T15:16:10.269Z,11.90
2023-04-27T15:26:13.640Z,11.40
2023-04-27T15:36:18.446Z,11.60
2023-04-27T15:46:21.829Z,11.50
2023-04-27T15:56:30.032Z,11.10
2023-04-27T16:06:36.686Z,10.50
2023-04-27T16:16:41.541Z,10.30
2023-04-27T16:26:45.997Z,10.20
2023-04-27T16:36:50.950Z,10.10
2023-04-27T16:46:54.298Z,9.70
2023-04-27T16:56:59.035Z,9.30
2023-04-27T17:07:02.587Z,8.70
2023-04-27T17:17:07.715Z,8.20
2023-04-27T17:27:11.599Z,7.80
2023-04-27T17:37:16.343Z,7.40
2023-04-27T17:47:22.281Z,7.20
2023-04-27T17:57:27.132Z,6.90
2023-04-27T18:07:30.474Z,6.70
2023-04-27T18:17:35.418Z,6.30
2023-04-27T18:27:39.010Z,5.90
2023-04-27T18:37:48.169Z,5.70
2023-04-27T18:47:51.756Z,5.60
2023-04-27T18:57:56.953Z,5.50
2023-04-27T19:08:00.421Z,5.50
2023-04-27T19:18:10.453Z,5.00
2023-04-27T19:28:16.556Z,4.40
2023-04-27T19:38:25.197Z,4.10
2023-04-27T19:48:29.082Z,3.90
2023-04-27T19:58:34.693Z,3.50
2023-04-27T20:08:38.095Z,2.90
2023-04-27T20:18:45.336Z,2.30
2023-04-27T20:28:48.670Z,1.80
2023-04-27T20:38:53.553Z,1.40
2023-04-27T20:48:57.072Z,1.10
2023-04-27T20:59:02.005Z,0.80
2023-04-27T21:09:05.568Z,0.60
2023-04-27T21:19:13.128Z,0.40
2023-04-27T21:29:16.572Z,0.10
2023-04-27T21:39:22.339Z,-0.10
2023-04-27T21:49:26.335Z,-0.20
2023-04-27T21:59:31.256Z,-0.10
2023-04-27T22:09:34.705Z,-0.20
2023-04-27T22:19:39.407Z,-0.40
2023-04-27T22:29:42.932Z,-0.50
2023-04-27T22:39:47.681Z,-0.50
2023-04-27T22:49:51.024Z,-0.40
2023-04-27T22:59:55.797Z,-0.20
2023-04-27T23:10:02.888Z,-0.20
2023-04-27T23:20:23.989Z,-0.30
2023-04-27T23:30:32.532Z,-0.30
2023-04-27T23:40:37.337Z,-0.40
2023-04-27T23:50:40.770Z,-0.20
